Britannia — VY5348 — position and weather

sailwx.info

Track history (hours):
 
Tides and Currents Weather Stations Pressure Air Temp Water Temp Dewpoint Dewpoint Depression Visibility Wind Speed Wind Dir Waves Ship Positions

Britannia

Last reported at 2016-Sep-27 00:33 UTC. Time now 2016-Sep-27 03:41 UTC.
Position N 49°18' W 123°08'.

Length 38 m; draft 5.4 m.

Type: Passenger vessel. MMSI: 316021351.

Date/timePositionNaut miles runAvg speedWind from/ knotsBaromVisibWave heightAir tempDewpointWater temp
2016-Sep-27 00:33N 49°18' W 123°08'0 0.0
2016-Sep-26 20:33N 49°18' W 123°08'0 0.0
2016-Sep-26 19:33N 49°18' W 123°08'0 0.0
2016-Sep-26 15:33N 49°18' W 123°08'0 0.0
2016-Sep-26 13:33N 49°18' W 123°08'0 0.0
2016-Sep-26 11:33N 49°18' W 123°08'0 0.0
2016-Sep-26 08:33N 49°18' W 123°08'7 1.2
2016-Sep-26 02:33N 49°19' W 122°57'3 3.4
2016-Sep-26 01:33N 49°18' W 123°02'4 4.1
2016-Sep-26 00:33N 49°18' W 123°08'0 0.0
2016-Sep-25 21:33N 49°18' W 123°08'0 0.0
2016-Sep-25 17:33N 49°18' W 123°08'0 0.0
2016-Sep-25 16:33N 49°18' W 123°08'0 0.0
2016-Sep-25 15:33N 49°18' W 123°08'0 0.0
2016-Sep-25 14:33N 49°18' W 123°08'0 0.0
2016-Sep-25 12:33N 49°18' W 123°08'0 0.0
2016-Sep-25 11:33N 49°18' W 123°08'0 0.0
2016-Sep-25 10:33N 49°18' W 123°08'0 0.0
2016-Sep-25 09:33N 49°18' W 123°08'0 0.0
2016-Sep-25 07:33N 49°18' W 123°08'0 0.0
2016-Sep-25 04:33N 49°18' W 123°08'0 0.0
2016-Sep-25 00:33N 49°18' W 123°08'0 0.0
2016-Sep-24 22:33N 49°18' W 123°08'0 0.0
2016-Sep-24 21:33N 49°18' W 123°08'0 0.0
2016-Sep-24 19:33N 49°18' W 123°08'0 0.0
2016-Sep-24 18:33N 49°18' W 123°08'0 0.0
2016-Sep-24 17:33N 49°18' W 123°08'0 0.0
2016-Sep-24 16:33N 49°18' W 123°08'0 0.0
2016-Sep-24 14:33N 49°18' W 123°08'0 0.0
2016-Sep-24 12:33N 49°18' W 123°08'0 0.0
2016-Sep-24 10:33N 49°18' W 123°08'0 0.0
2016-Sep-24 09:33N 49°18' W 123°08'0 0.0
2016-Sep-24 03:33N 49°18' W 123°08'0 0.0
2016-Sep-24 02:33N 49°18' W 123°08'0 0.0
2016-Sep-24 01:33N 49°18' W 123°08'0 0.0
2016-Sep-24 00:33N 49°18' W 123°08'5 1.0
2016-Sep-23 19:33N 49°20' W 123°15'10 5.1
2016-Sep-23 17:33N 49°24' W 123°29'8 7.8
2016-Sep-23 16:33N 49°21' W 123°18'7 7.4
2016-Sep-23 15:33N 49°18' W 123°08'0 0.0
2016-Sep-23 13:33N 49°18' W 123°08'0 0.0
2016-Sep-23 09:33N 49°18' W 123°08'0 0.0
2016-Sep-23 06:33N 49°18' W 123°08'0 0.0
2016-Sep-23 04:33N 49°18' W 123°08'1 1.1
2016-Sep-23 03:33N 49°18' W 123°06'2 1.9
2016-Sep-23 02:33N 49°16' W 123°08'3 2.8
2016-Sep-23 01:33N 49°19' W 123°09'1 1.4
2016-Sep-23 00:33N 49°18' W 123°08'0 0.0
2016-Sep-22 23:33N 49°18' W 123°08'0 0.0
2016-Sep-22 20:33N 49°18' W 123°08'0 0.0
2016-Sep-22 12:33N 49°18' W 123°08'0 0.0
2016-Sep-22 04:33N 49°18' W 123°08'0 0.0
2016-Sep-22 03:33N 49°18' W 123°08'0 0.0
2016-Sep-22 00:33N 49°18' W 123°08'0 0.0
2016-Sep-21 23:33N 49°18' W 123°08'0 0.0
2016-Sep-21 22:33N 49°18' W 123°08'15 5.0
2016-Sep-21 19:33N 49°24' W 123°29'12 4.1
2016-Sep-21 16:33N 49°19' W 123°11'3 0.4
2016-Sep-21 09:33N 49°18' W 123°08'0 0.0
2016-Sep-21 08:33N 49°18' W 123°08'0 0.0
2016-Sep-21 05:33N 49°18' W 123°08'0 0.0
2016-Sep-21 03:33N 49°18' W 123°08'2 2.3
2016-Sep-21 02:33N 49°18' W 123°05'2 0.3
2016-Sep-20 17:33N 49°18' W 123°08'0 0.0
2016-Sep-20 14:33N 49°18' W 123°08'0 0.0
2016-Sep-20 13:33N 49°18' W 123°08'0 0.0
2016-Sep-20 10:33N 49°18' W 123°08'0 0.0
2016-Sep-20 08:33N 49°18' W 123°08'0 0.0
2016-Sep-20 07:33N 49°18' W 123°08'0 0.0
2016-Sep-20 06:33N 49°18' W 123°08'0 0.0
2016-Sep-20 02:33N 49°18' W 123°08'0 0.0
2016-Sep-19 23:33N 49°18' W 123°08'5 1.3
2016-Sep-19 19:33N 49°20' W 123°16'9 8.9
2016-Sep-19 18:33N 49°25' W 123°26'9 4.4
2016-Sep-19 16:33N 49°20' W 123°16'5 2.7
2016-Sep-19 14:33N 49°18' W 123°08'0 0.0
2016-Sep-19 13:33N 49°18' W 123°08'0 0.0
2016-Sep-19 12:33N 49°18' W 123°08'0 0.0
2016-Sep-19 11:33N 49°18' W 123°08'0 0.0
2016-Sep-19 09:33N 49°18' W 123°08'0 0.0
2016-Sep-19 07:33N 49°18' W 123°08'0 0.0
2016-Sep-19 06:33N 49°18' W 123°08'1 0.3
2016-Sep-19 03:33N 49°18' W 123°07'7 7.2
2016-Sep-19 02:33N 49°21' W 123°17'7 3.3
2016-Sep-19 00:33N 49°18' W 123°08'0 0.0
2016-Sep-18 19:33N 49°18' W 123°08'0 0.0
2016-Sep-18 15:33N 49°18' W 123°08'0 0.0
2016-Sep-18 14:33N 49°18' W 123°08'0 0.0
2016-Sep-18 10:33N 49°18' W 123°08'0 0.0
2016-Sep-18 09:33N 49°18' W 123°08'0 0.0
2016-Sep-18 02:33N 49°18' W 123°08'0 0.0
2016-Sep-18 01:33N 49°18' W 123°08'0 0.0
2016-Sep-18 00:33N 49°18' W 123°08'0 0.0
2016-Sep-17 22:33N 49°18' W 123°08'0 0.0
2016-Sep-17 21:33N 49°18' W 123°08'0 0.0
2016-Sep-17 20:33N 49°18' W 123°08'0 0.0
2016-Sep-17 19:16N 49°18' W 123°08'0 0.0
2016-Sep-17 13:33N 49°18' W 123°08'0 0.0
2016-Sep-17 12:33N 49°18' W 123°08'0 0.0
2016-Sep-17 10:33N 49°18' W 123°08'0 0.0
2016-Sep-17 09:33N 49°18' W 123°08'0 0.0
2016-Sep-17 08:33N 49°18' W 123°08'0 0.0
2016-Sep-17 07:34N 49°18' W 123°08'0 0.0
2016-Sep-17 05:33N 49°18' W 123°08'0 0.0
2016-Sep-17 04:33N 49°18' W 123°08'  
Track history (hours):
 
Tides and Currents Weather Stations Pressure Air Temp Water Temp Dewpoint Dewpoint Depression Visibility Wind Speed Wind Dir Waves Ship Positions

Britannia

Last reported at 2016-Sep-27 00:33 UTC. Time now 2016-Sep-27 03:41 UTC.
Position N 49°18' W 123°08'.

Length 38 m; draft 5.4 m.

Type: Passenger vessel. MMSI: 316021351.

Date/timePositionNaut miles runAvg speedWind from/ knotsBaromVisibWave heightAir tempDewpointWater temp
2016-Sep-27 00:33N 49°18' W 123°08'0 0.0
2016-Sep-26 20:33N 49°18' W 123°08'0 0.0
2016-Sep-26 19:33N 49°18' W 123°08'0 0.0
2016-Sep-26 15:33N 49°18' W 123°08'0 0.0
2016-Sep-26 13:33N 49°18' W 123°08'0 0.0
2016-Sep-26 11:33N 49°18' W 123°08'0 0.0
2016-Sep-26 08:33N 49°18' W 123°08'7 1.2
2016-Sep-26 02:33N 49°19' W 122°57'3 3.4
2016-Sep-26 01:33N 49°18' W 123°02'4 4.1
2016-Sep-26 00:33N 49°18' W 123°08'0 0.0
2016-Sep-25 21:33N 49°18' W 123°08'0 0.0
2016-Sep-25 17:33N 49°18' W 123°08'0 0.0
2016-Sep-25 16:33N 49°18' W 123°08'0 0.0
2016-Sep-25 15:33N 49°18' W 123°08'0 0.0
2016-Sep-25 14:33N 49°18' W 123°08'0 0.0
2016-Sep-25 12:33N 49°18' W 123°08'0 0.0
2016-Sep-25 11:33N 49°18' W 123°08'0 0.0
2016-Sep-25 10:33N 49°18' W 123°08'0 0.0
2016-Sep-25 09:33N 49°18' W 123°08'0 0.0
2016-Sep-25 07:33N 49°18' W 123°08'0 0.0
2016-Sep-25 04:33N 49°18' W 123°08'0 0.0
2016-Sep-25 00:33N 49°18' W 123°08'0 0.0
2016-Sep-24 22:33N 49°18' W 123°08'0 0.0
2016-Sep-24 21:33N 49°18' W 123°08'0 0.0
2016-Sep-24 19:33N 49°18' W 123°08'0 0.0
2016-Sep-24 18:33N 49°18' W 123°08'0 0.0
2016-Sep-24 17:33N 49°18' W 123°08'0 0.0
2016-Sep-24 16:33N 49°18' W 123°08'0 0.0
2016-Sep-24 14:33N 49°18' W 123°08'0 0.0
2016-Sep-24 12:33N 49°18' W 123°08'0 0.0
2016-Sep-24 10:33N 49°18' W 123°08'0 0.0
2016-Sep-24 09:33N 49°18' W 123°08'0 0.0
2016-Sep-24 03:33N 49°18' W 123°08'0 0.0
2016-Sep-24 02:33N 49°18' W 123°08'0 0.0
2016-Sep-24 01:33N 49°18' W 123°08'0 0.0
2016-Sep-24 00:33N 49°18' W 123°08'5 1.0
2016-Sep-23 19:33N 49°20' W 123°15'10 5.1
2016-Sep-23 17:33N 49°24' W 123°29'8 7.8
2016-Sep-23 16:33N 49°21' W 123°18'7 7.4
2016-Sep-23 15:33N 49°18' W 123°08'0 0.0
2016-Sep-23 13:33N 49°18' W 123°08'0 0.0
2016-Sep-23 09:33N 49°18' W 123°08'0 0.0
2016-Sep-23 06:33N 49°18' W 123°08'0 0.0
2016-Sep-23 04:33N 49°18' W 123°08'1 1.1
2016-Sep-23 03:33N 49°18' W 123°06'2 1.9
2016-Sep-23 02:33N 49°16' W 123°08'3 2.8
2016-Sep-23 01:33N 49°19' W 123°09'1 1.4
2016-Sep-23 00:33N 49°18' W 123°08'0 0.0
2016-Sep-22 23:33N 49°18' W 123°08'0 0.0
2016-Sep-22 20:33N 49°18' W 123°08'0 0.0
2016-Sep-22 12:33N 49°18' W 123°08'0 0.0
2016-Sep-22 04:33N 49°18' W 123°08'0 0.0
2016-Sep-22 03:33N 49°18' W 123°08'0 0.0
2016-Sep-22 00:33N 49°18' W 123°08'0 0.0
2016-Sep-21 23:33N 49°18' W 123°08'0 0.0
2016-Sep-21 22:33N 49°18' W 123°08'15 5.0
2016-Sep-21 19:33N 49°24' W 123°29'12 4.1
2016-Sep-21 16:33N 49°19' W 123°11'3 0.4
2016-Sep-21 09:33N 49°18' W 123°08'0 0.0
2016-Sep-21 08:33N 49°18' W 123°08'0 0.0
2016-Sep-21 05:33N 49°18' W 123°08'0 0.0
2016-Sep-21 03:33N 49°18' W 123°08'2 2.3
2016-Sep-21 02:33N 49°18' W 123°05'2 0.3
2016-Sep-20 17:33N 49°18' W 123°08'0 0.0
2016-Sep-20 14:33N 49°18' W 123°08'0 0.0
2016-Sep-20 13:33N 49°18' W 123°08'0 0.0
2016-Sep-20 10:33N 49°18' W 123°08'0 0.0
2016-Sep-20 08:33N 49°18' W 123°08'0 0.0
2016-Sep-20 07:33N 49°18' W 123°08'0 0.0
2016-Sep-20 06:33N 49°18' W 123°08'0 0.0
2016-Sep-20 02:33N 49°18' W 123°08'0 0.0
2016-Sep-19 23:33N 49°18' W 123°08'5 1.3
2016-Sep-19 19:33N 49°20' W 123°16'9 8.9
2016-Sep-19 18:33N 49°25' W 123°26'9 4.4
2016-Sep-19 16:33N 49°20' W 123°16'5 2.7
2016-Sep-19 14:33N 49°18' W 123°08'0 0.0
2016-Sep-19 13:33N 49°18' W 123°08'0 0.0
2016-Sep-19 12:33N 49°18' W 123°08'0 0.0
2016-Sep-19 11:33N 49°18' W 123°08'0 0.0
2016-Sep-19 09:33N 49°18' W 123°08'0 0.0
2016-Sep-19 07:33N 49°18' W 123°08'0 0.0
2016-Sep-19 06:33N 49°18' W 123°08'1 0.3
2016-Sep-19 03:33N 49°18' W 123°07'7 7.2
2016-Sep-19 02:33N 49°21' W 123°17'7 3.3
2016-Sep-19 00:33N 49°18' W 123°08'0 0.0
2016-Sep-18 19:33N 49°18' W 123°08'0 0.0
2016-Sep-18 15:33N 49°18' W 123°08'0 0.0
2016-Sep-18 14:33N 49°18' W 123°08'0 0.0
2016-Sep-18 10:33N 49°18' W 123°08'0 0.0
2016-Sep-18 09:33N 49°18' W 123°08'0 0.0
2016-Sep-18 02:33N 49°18' W 123°08'0 0.0
2016-Sep-18 01:33N 49°18' W 123°08'0 0.0
2016-Sep-18 00:33N 49°18' W 123°08'0 0.0
2016-Sep-17 22:33N 49°18' W 123°08'0 0.0
2016-Sep-17 21:33N 49°18' W 123°08'0 0.0
2016-Sep-17 20:33N 49°18' W 123°08'0 0.0
2016-Sep-17 19:16N 49°18' W 123°08'0 0.0
2016-Sep-17 13:33N 49°18' W 123°08'0 0.0
2016-Sep-17 12:33N 49°18' W 123°08'0 0.0
2016-Sep-17 10:33N 49°18' W 123°08'0 0.0
2016-Sep-17 09:33N 49°18' W 123°08'0 0.0
2016-Sep-17 08:33N 49°18' W 123°08'0 0.0
2016-Sep-17 07:34N 49°18' W 123°08'0 0.0
2016-Sep-17 05:33N 49°18' W 123°08'0 0.0
2016-Sep-17 04:33N 49°18' W 123°08'  

Dump ship's entire track history